sensor_id;sensor_type;location;lat;lon;timestamp;P1;durP1;ratioP1;P2;durP2;ratioP2
11962;SDS011;62678;52.130;5.584;2023-08-06T00:00:38;10.38;;;9.32;;
11962;SDS011;62678;52.130;5.584;2023-08-06T00:03:05;11.25;;;9.60;;
11962;SDS011;62678;52.130;5.584;2023-08-06T00:05:32;13.07;;;9.65;;
11962;SDS011;62678;52.130;5.584;2023-08-06T00:07:59;13.45;;;9.90;;
11962;SDS011;62678;52.130;5.584;2023-08-06T00:10:28;12.88;;;9.82;;
11962;SDS011;62678;52.130;5.584;2023-08-06T00:12:55;11.75;;;9.60;;
11962;SDS011;62678;52.130;5.584;2023-08-06T00:15:22;11.80;;;10.30;;
11962;SDS011;62678;52.130;5.584;2023-08-06T00:17:49;13.48;;;10.18;;
11962;SDS011;62678;52.130;5.584;2023-08-06T00:20:16;12.80;;;10.05;;
11962;SDS011;62678;52.130;5.584;2023-08-06T00:22:43;11.90;;;10.70;;
11962;SDS011;62678;52.130;5.584;2023-08-06T00:25:10;14.18;;;11.25;;
11962;SDS011;62678;52.130;5.584;2023-08-06T00:27:38;17.17;;;11.80;;
11962;SDS011;62678;52.130;5.584;2023-08-06T00:30:06;16.27;;;12.07;;
11962;SDS011;62678;52.130;5.584;2023-08-06T00:32:33;13.35;;;12.00;;
11962;SDS011;62678;52.130;5.584;2023-08-06T00:35:01;17.13;;;13.48;;
11962;SDS011;62678;52.130;5.584;2023-08-06T00:37:29;16.13;;;12.93;;
11962;SDS011;62678;52.130;5.584;2023-08-06T00:39:56;16.63;;;13.52;;
11962;SDS011;62678;52.130;5.584;2023-08-06T00:42:23;19.63;;;13.60;;
11962;SDS011;62678;52.130;5.584;2023-08-06T00:44:52;20.92;;;15.32;;
11962;SDS011;62678;52.130;5.584;2023-08-06T00:47:19;18.52;;;15.05;;
11962;SDS011;62678;52.130;5.584;2023-08-06T00:49:46;18.60;;;14.77;;
11962;SDS011;62678;52.130;5.584;2023-08-06T00:52:13;17.27;;;14.50;;
11962;SDS011;62678;52.130;5.584;2023-08-06T00:54:41;20.27;;;15.50;;
11962;SDS011;62678;52.130;5.584;2023-08-06T00:57:08;19.60;;;15.13;;
11962;SDS011;62678;52.130;5.584;2023-08-06T00:59:36;21.27;;;15.82;;
11962;SDS011;62678;52.130;5.584;2023-08-06T01:02:05;18.70;;;15.70;;
11962;SDS011;62678;52.130;5.584;2023-08-06T01:04:33;21.73;;;15.55;;
11962;SDS011;62678;52.130;5.584;2023-08-06T01:07:02;21.92;;;15.15;;
11962;SDS011;62678;52.130;5.584;2023-08-06T01:09:41;21.80;;;16.42;;
11962;SDS011;62678;52.130;5.584;2023-08-06T01:12:18;18.90;;;15.88;;
11962;SDS011;62678;52.130;5.584;2023-08-06T01:14:53;21.60;;;16.73;;
11962;SDS011;62678;52.130;5.584;2023-08-06T01:17:28;21.27;;;16.27;;
11962;SDS011;62678;52.130;5.584;2023-08-06T01:19:56;20.80;;;16.60;;
11962;SDS011;62678;52.130;5.584;2023-08-06T01:22:25;22.35;;;16.27;;
11962;SDS011;62678;52.130;5.584;2023-08-06T01:24:52;22.48;;;16.20;;
11962;SDS011;62678;52.130;5.584;2023-08-06T01:27:22;20.73;;;15.95;;
11962;SDS011;62678;52.130;5.584;2023-08-06T01:29:56;17.70;;;15.15;;
11962;SDS011;62678;52.130;5.584;2023-08-06T01:32:27;24.58;;;16.05;;
11962;SDS011;62678;52.130;5.584;2023-08-06T01:34:57;19.92;;;15.95;;
11962;SDS011;62678;52.130;5.584;2023-08-06T01:37:27;22.65;;;16.73;;
11962;SDS011;62678;52.130;5.584;2023-08-06T01:39:55;19.20;;;14.93;;
11962;SDS011;62678;52.130;5.584;2023-08-06T01:42:22;21.73;;;16.75;;
11962;SDS011;62678;52.130;5.584;2023-08-06T01:44:50;23.95;;;15.30;;
11962;SDS011;62678;52.130;5.584;2023-08-06T01:47:17;21.77;;;15.75;;
11962;SDS011;62678;52.130;5.584;2023-08-06T01:49:45;18.80;;;15.45;;
11962;SDS011;62678;52.130;5.584;2023-08-06T01:52:12;20.30;;;15.02;;
11962;SDS011;62678;52.130;5.584;2023-08-06T01:54:40;21.45;;;15.93;;
11962;SDS011;62678;52.130;5.584;2023-08-06T01:57:07;22.35;;;15.27;;
11962;SDS011;62678;52.130;5.584;2023-08-06T01:59:34;18.20;;;15.07;;
11962;SDS011;62678;52.130;5.584;2023-08-06T02:02:01;24.83;;;15.70;;
11962;SDS011;62678;52.130;5.584;2023-08-06T02:04:28;22.15;;;16.70;;
11962;SDS011;62678;52.130;5.584;2023-08-06T02:06:55;23.63;;;17.55;;
11962;SDS011;62678;52.130;5.584;2023-08-06T02:09:22;21.27;;;16.55;;
11962;SDS011;62678;52.130;5.584;2023-08-06T02:11:50;19.80;;;17.02;;
11962;SDS011;62678;52.130;5.584;2023-08-06T02:14:17;22.25;;;17.67;;
11962;SDS011;62678;52.130;5.584;2023-08-06T02:16:44;21.73;;;18.73;;
11962;SDS011;62678;52.130;5.584;2023-08-06T02:19:11;22.67;;;18.83;;
11962;SDS011;62678;52.130;5.584;2023-08-06T02:21:38;21.25;;;18.05;;
11962;SDS011;62678;52.130;5.584;2023-08-06T02:24:05;23.45;;;19.10;;
11962;SDS011;62678;52.130;5.584;2023-08-06T02:26:32;24.88;;;19.27;;
11962;SDS011;62678;52.130;5.584;2023-08-06T02:29:00;25.17;;;19.48;;
11962;SDS011;62678;52.130;5.584;2023-08-06T02:31:27;23.20;;;19.08;;
11962;SDS011;62678;52.130;5.584;2023-08-06T02:33:54;24.80;;;18.83;;
11962;SDS011;62678;52.130;5.584;2023-08-06T02:36:22;22.38;;;18.08;;
11962;SDS011;62678;52.130;5.584;2023-08-06T02:38:49;23.70;;;17.73;;
11962;SDS011;62678;52.130;5.584;2023-08-06T02:41:16;23.40;;;18.38;;
11962;SDS011;62678;52.130;5.584;2023-08-06T02:43:43;22.55;;;18.58;;
11962;SDS011;62678;52.130;5.584;2023-08-06T02:46:12;22.35;;;18.40;;
11962;SDS011;62678;52.130;5.584;2023-08-06T02:48:39;22.00;;;17.48;;
11962;SDS011;62678;52.130;5.584;2023-08-06T02:51:06;23.10;;;17.90;;
11962;SDS011;62678;52.130;5.584;2023-08-06T02:53:33;22.58;;;17.13;;
11962;SDS011;62678;52.130;5.584;2023-08-06T02:56:00;23.73;;;18.10;;
11962;SDS011;62678;52.130;5.584;2023-08-06T02:58:27;20.77;;;17.42;;
11962;SDS011;62678;52.130;5.584;2023-08-06T03:01:01;21.65;;;18.90;;
11962;SDS011;62678;52.130;5.584;2023-08-06T03:03:30;22.48;;;18.67;;
11962;SDS011;62678;52.130;5.584;2023-08-06T03:05:57;23.48;;;17.60;;
11962;SDS011;62678;52.130;5.584;2023-08-06T03:08:24;21.52;;;17.33;;
11962;SDS011;62678;52.130;5.584;2023-08-06T03:10:51;21.45;;;17.17;;
11962;SDS011;62678;52.130;5.584;2023-08-06T03:13:19;22.27;;;18.13;;
11962;SDS011;62678;52.130;5.584;2023-08-06T03:15:55;22.85;;;18.35;;
11962;SDS011;62678;52.130;5.584;2023-08-06T03:18:23;22.23;;;18.08;;
11962;SDS011;62678;52.130;5.584;2023-08-06T03:20:52;22.60;;;18.55;;
11962;SDS011;62678;52.130;5.584;2023-08-06T03:23:19;20.92;;;17.67;;
11962;SDS011;62678;52.130;5.584;2023-08-06T03:25:46;22.05;;;18.20;;
11962;SDS011;62678;52.130;5.584;2023-08-06T03:28:13;21.48;;;17.38;;
11962;SDS011;62678;52.130;5.584;2023-08-06T03:30:40;22.05;;;18.08;;
11962;SDS011;62678;52.130;5.584;2023-08-06T03:33:07;23.55;;;18.33;;
11962;SDS011;62678;52.130;5.584;2023-08-06T03:35:34;24.60;;;18.35;;
11962;SDS011;62678;52.130;5.584;2023-08-06T03:38:03;24.55;;;19.00;;
11962;SDS011;62678;52.130;5.584;2023-08-06T03:40:30;24.45;;;19.10;;
11962;SDS011;62678;52.130;5.584;2023-08-06T03:42:57;25.63;;;19.15;;
11962;SDS011;62678;52.130;5.584;2023-08-06T03:45:24;24.13;;;19.88;;
11962;SDS011;62678;52.130;5.584;2023-08-06T03:47:51;24.77;;;19.65;;
11962;SDS011;62678;52.130;5.584;2023-08-06T03:50:18;26.35;;;20.73;;
11962;SDS011;62678;52.130;5.584;2023-08-06T03:52:45;25.95;;;20.48;;
11962;SDS011;62678;52.130;5.584;2023-08-06T03:55:14;27.23;;;21.80;;
11962;SDS011;62678;52.130;5.584;2023-08-06T03:57:41;29.65;;;23.23;;
11962;SDS011;62678;52.130;5.584;2023-08-06T04:00:08;29.13;;;22.17;;
11962;SDS011;62678;52.130;5.584;2023-08-06T04:02:36;28.98;;;23.30;;
11962;SDS011;62678;52.130;5.584;2023-08-06T04:05:03;30.45;;;22.15;;
11962;SDS011;62678;52.130;5.584;2023-08-06T04:07:30;29.70;;;22.98;;
11962;SDS011;62678;52.130;5.584;2023-08-06T04:09:58;33.20;;;22.73;;
11962;SDS011;62678;52.130;5.584;2023-08-06T04:12:27;30.95;;;23.30;;
11962;SDS011;62678;52.130;5.584;2023-08-06T04:14:55;28.15;;;22.92;;
11962;SDS011;62678;52.130;5.584;2023-08-06T04:17:23;28.58;;;23.27;;
11962;SDS011;62678;52.130;5.584;2023-08-06T04:19:51;30.48;;;22.92;;
11962;SDS011;62678;52.130;5.584;2023-08-06T04:22:19;30.48;;;24.05;;
11962;SDS011;62678;52.130;5.584;2023-08-06T04:24:47;29.67;;;23.67;;
11962;SDS011;62678;52.130;5.584;2023-08-06T04:27:15;28.15;;;23.05;;
11962;SDS011;62678;52.130;5.584;2023-08-06T04:29:44;28.52;;;23.00;;
11962;SDS011;62678;52.130;5.584;2023-08-06T04:32:11;32.22;;;23.23;;
11962;SDS011;62678;52.130;5.584;2023-08-06T04:34:38;29.13;;;23.50;;
11962;SDS011;62678;52.130;5.584;2023-08-06T04:37:06;30.13;;;23.67;;
11962;SDS011;62678;52.130;5.584;2023-08-06T04:39:33;31.20;;;23.83;;
11962;SDS011;62678;52.130;5.584;2023-08-06T04:42:00;26.85;;;21.98;;
11962;SDS011;62678;52.130;5.584;2023-08-06T04:44:27;32.45;;;23.23;;
11962;SDS011;62678;52.130;5.584;2023-08-06T04:46:55;29.58;;;23.27;;
11962;SDS011;62678;52.130;5.584;2023-08-06T04:49:22;28.17;;;23.52;;
11962;SDS011;62678;52.130;5.584;2023-08-06T04:51:49;27.50;;;22.05;;
11962;SDS011;62678;52.130;5.584;2023-08-06T04:54:16;28.15;;;22.15;;
11962;SDS011;62678;52.130;5.584;2023-08-06T04:56:43;28.38;;;22.23;;
11962;SDS011;62678;52.130;5.584;2023-08-06T04:59:10;25.00;;;20.17;;
11962;SDS011;62678;52.130;5.584;2023-08-06T05:01:37;26.00;;;20.83;;
11962;SDS011;62678;52.130;5.584;2023-08-06T05:04:06;27.05;;;21.35;;
11962;SDS011;62678;52.130;5.584;2023-08-06T05:06:33;26.02;;;20.98;;
11962;SDS011;62678;52.130;5.584;2023-08-06T05:09:00;22.65;;;20.23;;
11962;SDS011;62678;52.130;5.584;2023-08-06T05:11:27;22.42;;;20.00;;
11962;SDS011;62678;52.130;5.584;2023-08-06T05:13:54;23.75;;;20.63;;
11962;SDS011;62678;52.130;5.584;2023-08-06T05:16:21;23.05;;;20.58;;
11962;SDS011;62678;52.130;5.584;2023-08-06T05:18:48;25.40;;;20.77;;
11962;SDS011;62678;52.130;5.584;2023-08-06T05:21:17;23.63;;;20.42;;
11962;SDS011;62678;52.130;5.584;2023-08-06T05:23:44;23.83;;;20.77;;
11962;SDS011;62678;52.130;5.584;2023-08-06T05:26:11;22.65;;;20.25;;
11962;SDS011;62678;52.130;5.584;2023-08-06T05:28:39;21.55;;;19.25;;
11962;SDS011;62678;52.130;5.584;2023-08-06T05:31:07;21.52;;;19.23;;
11962;SDS011;62678;52.130;5.584;2023-08-06T05:33:34;22.27;;;19.38;;
11962;SDS011;62678;52.130;5.584;2023-08-06T05:36:01;25.67;;;20.08;;
11962;SDS011;62678;52.130;5.584;2023-08-06T05:38:30;22.58;;;20.08;;
11962;SDS011;62678;52.130;5.584;2023-08-06T05:40:57;20.63;;;18.30;;
11962;SDS011;62678;52.130;5.584;2023-08-06T05:43:24;22.15;;;19.13;;
11962;SDS011;62678;52.130;5.584;2023-08-06T05:45:51;20.30;;;18.10;;
11962;SDS011;62678;52.130;5.584;2023-08-06T05:48:18;20.77;;;18.55;;
11962;SDS011;62678;52.130;5.584;2023-08-06T05:50:45;21.15;;;18.65;;
11962;SDS011;62678;52.130;5.584;2023-08-06T05:53:11;21.67;;;17.92;;
11962;SDS011;62678;52.130;5.584;2023-08-06T05:55:40;22.77;;;18.88;;
11962;SDS011;62678;52.130;5.584;2023-08-06T05:58:07;22.55;;;18.95;;
11962;SDS011;62678;52.130;5.584;2023-08-06T06:00:34;21.05;;;18.25;;
11962;SDS011;62678;52.130;5.584;2023-08-06T06:03:01;20.35;;;17.30;;
11962;SDS011;62678;52.130;5.584;2023-08-06T06:05:28;21.08;;;18.55;;
11962;SDS011;62678;52.130;5.584;2023-08-06T06:07:56;19.00;;;16.92;;
11962;SDS011;62678;52.130;5.584;2023-08-06T06:10:23;20.20;;;17.92;;
11962;SDS011;62678;52.130;5.584;2023-08-06T06:12:51;20.02;;;17.92;;
11962;SDS011;62678;52.130;5.584;2023-08-06T06:15:19;19.15;;;17.17;;
11962;SDS011;62678;52.130;5.584;2023-08-06T06:17:46;19.65;;;17.55;;
11962;SDS011;62678;52.130;5.584;2023-08-06T06:20:13;22.17;;;18.17;;
11962;SDS011;62678;52.130;5.584;2023-08-06T06:22:40;20.38;;;18.17;;
11962;SDS011;62678;52.130;5.584;2023-08-06T06:25:07;18.95;;;16.90;;
11962;SDS011;62678;52.130;5.584;2023-08-06T06:27:37;18.77;;;16.77;;
11962;SDS011;62678;52.130;5.584;2023-08-06T06:30:06;18.67;;;16.70;;
11962;SDS011;62678;52.130;5.584;2023-08-06T06:32:34;18.65;;;16.13;;
11962;SDS011;62678;52.130;5.584;2023-08-06T06:35:01;18.65;;;16.20;;
11962;SDS011;62678;52.130;5.584;2023-08-06T06:37:29;19.25;;;16.60;;
11962;SDS011;62678;52.130;5.584;2023-08-06T06:39:56;17.00;;;15.20;;
11962;SDS011;62678;52.130;5.584;2023-08-06T06:42:23;16.80;;;15.07;;
11962;SDS011;62678;52.130;5.584;2023-08-06T06:44:50;17.88;;;16.08;;
11962;SDS011;62678;52.130;5.584;2023-08-06T06:47:19;14.38;;;12.95;;
11962;SDS011;62678;52.130;5.584;2023-08-06T06:49:46;14.65;;;13.25;;
11962;SDS011;62678;52.130;5.584;2023-08-06T06:52:14;14.38;;;12.50;;
11962;SDS011;62678;52.130;5.584;2023-08-06T06:54:41;16.73;;;13.20;;
11962;SDS011;62678;52.130;5.584;2023-08-06T06:57:08;11.13;;;10.02;;
11962;SDS011;62678;52.130;5.584;2023-08-06T06:59:35;10.25;;;9.20;;
11962;SDS011;62678;52.130;5.584;2023-08-06T07:02:03;11.30;;;9.70;;
11962;SDS011;62678;52.130;5.584;2023-08-06T07:04:33;11.88;;;10.68;;
11962;SDS011;62678;52.130;5.584;2023-08-06T07:07:01;11.68;;;10.57;;
11962;SDS011;62678;52.130;5.584;2023-08-06T07:09:28;12.45;;;11.15;;
11962;SDS011;62678;52.130;5.584;2023-08-06T07:11:55;9.48;;;8.57;;
11962;SDS011;62678;52.130;5.584;2023-08-06T07:14:23;10.07;;;9.07;;
11962;SDS011;62678;52.130;5.584;2023-08-06T07:16:50;10.68;;;9.68;;
11962;SDS011;62678;52.130;5.584;2023-08-06T07:19:17;10.30;;;9.23;;
11962;SDS011;62678;52.130;5.584;2023-08-06T07:21:46;9.63;;;8.73;;
11962;SDS011;62678;52.130;5.584;2023-08-06T07:24:13;10.68;;;9.57;;
11962;SDS011;62678;52.130;5.584;2023-08-06T07:26:40;11.65;;;10.20;;
11962;SDS011;62678;52.130;5.584;2023-08-06T07:29:07;12.20;;;11.07;;
11962;SDS011;62678;52.130;5.584;2023-08-06T07:31:34;12.88;;;11.68;;
11962;SDS011;62678;52.130;5.584;2023-08-06T07:34:01;12.63;;;11.32;;
11962;SDS011;62678;52.130;5.584;2023-08-06T07:36:28;11.63;;;10.52;;
11962;SDS011;62678;52.130;5.584;2023-08-06T07:38:57;14.20;;;11.68;;
11962;SDS011;62678;52.130;5.584;2023-08-06T07:41:24;14.90;;;13.07;;
11962;SDS011;62678;52.130;5.584;2023-08-06T07:43:52;14.15;;;12.75;;
11962;SDS011;62678;52.130;5.584;2023-08-06T07:46:20;16.17;;;14.00;;
11962;SDS011;62678;52.130;5.584;2023-08-06T07:48:47;17.88;;;15.98;;
11962;SDS011;62678;52.130;5.584;2023-08-06T07:51:15;16.15;;;14.45;;
11962;SDS011;62678;52.130;5.584;2023-08-06T07:53:43;15.63;;;14.02;;
11962;SDS011;62678;52.130;5.584;2023-08-06T07:56:13;14.93;;;13.43;;
11962;SDS011;62678;52.130;5.584;2023-08-06T07:58:41;15.95;;;13.45;;
11962;SDS011;62678;52.130;5.584;2023-08-06T08:01:09;14.88;;;13.32;;
11962;SDS011;62678;52.130;5.584;2023-08-06T08:03:37;15.35;;;13.60;;
11962;SDS011;62678;52.130;5.584;2023-08-06T08:06:04;15.52;;;13.93;;
11962;SDS011;62678;52.130;5.584;2023-08-06T08:08:31;17.85;;;15.93;;
11962;SDS011;62678;52.130;5.584;2023-08-06T08:11:02;18.20;;;16.13;;
11962;SDS011;62678;52.130;5.584;2023-08-06T08:13:31;20.23;;;16.90;;
11962;SDS011;62678;52.130;5.584;2023-08-06T08:15:59;18.63;;;16.20;;
11962;SDS011;62678;52.130;5.584;2023-08-06T08:18:26;21.40;;;16.77;;
11962;SDS011;62678;52.130;5.584;2023-08-06T08:20:53;18.27;;;16.42;;
11962;SDS011;62678;52.130;5.584;2023-08-06T08:23:20;17.55;;;15.73;;
11962;SDS011;62678;52.130;5.584;2023-08-06T08:25:47;20.45;;;16.35;;
11962;SDS011;62678;52.130;5.584;2023-08-06T08:28:14;19.90;;;17.38;;
11962;SDS011;62678;52.130;5.584;2023-08-06T08:30:43;18.70;;;16.60;;
11962;SDS011;62678;52.130;5.584;2023-08-06T08:33:10;22.00;;;18.40;;
11962;SDS011;62678;52.130;5.584;2023-08-06T08:35:37;24.05;;;17.67;;
11962;SDS011;62678;52.130;5.584;2023-08-06T08:38:05;20.67;;;17.80;;
11962;SDS011;62678;52.130;5.584;2023-08-06T08:40:32;21.75;;;18.98;;
11962;SDS011;62678;52.130;5.584;2023-08-06T08:43:01;19.88;;;17.88;;
11962;SDS011;62678;52.130;5.584;2023-08-06T08:45:29;20.50;;;17.52;;
11962;SDS011;62678;52.130;5.584;2023-08-06T08:47:58;21.90;;;18.45;;
11962;SDS011;62678;52.130;5.584;2023-08-06T08:50:25;19.80;;;17.67;;
11962;SDS011;62678;52.130;5.584;2023-08-06T08:52:52;19.63;;;17.48;;
11962;SDS011;62678;52.130;5.584;2023-08-06T08:55:20;19.92;;;17.02;;
11962;SDS011;62678;52.130;5.584;2023-08-06T08:57:49;20.00;;;17.90;;
11962;SDS011;62678;52.130;5.584;2023-08-06T09:00:16;20.08;;;17.98;;
11962;SDS011;62678;52.130;5.584;2023-08-06T09:02:43;20.23;;;18.13;;
11962;SDS011;62678;52.130;5.584;2023-08-06T09:05:14;21.80;;;19.40;;
11962;SDS011;62678;52.130;5.584;2023-08-06T09:07:43;20.73;;;18.67;;
11962;SDS011;62678;52.130;5.584;2023-08-06T09:10:16;22.08;;;19.80;;
11962;SDS011;62678;52.130;5.584;2023-08-06T09:12:44;23.45;;;20.80;;
11962;SDS011;62678;52.130;5.584;2023-08-06T09:15:13;22.98;;;20.55;;
11962;SDS011;62678;52.130;5.584;2023-08-06T09:17:39;24.17;;;19.92;;
11962;SDS011;62678;52.130;5.584;2023-08-06T09:20:10;22.85;;;20.13;;
11962;SDS011;62678;52.130;5.584;2023-08-06T09:22:40;22.85;;;20.40;;
11962;SDS011;62678;52.130;5.584;2023-08-06T09:25:07;14.95;;;13.45;;
11962;SDS011;62678;52.130;5.584;2023-08-06T09:27:35;7.28;;;6.20;;
11962;SDS011;62678;52.130;5.584;2023-08-06T09:30:03;6.47;;;4.57;;
11962;SDS011;62678;52.130;5.584;2023-08-06T09:32:44;4.50;;;4.10;;
11962;SDS011;62678;52.130;5.584;2023-08-06T09:35:15;3.63;;;3.33;;
11962;SDS011;62678;52.130;5.584;2023-08-06T09:37:44;3.42;;;3.13;;
11962;SDS011;62678;52.130;5.584;2023-08-06T09:40:24;2.35;;;2.25;;
11962;SDS011;62678;52.130;5.584;2023-08-06T09:42:52;3.38;;;2.80;;
11962;SDS011;62678;52.130;5.584;2023-08-06T09:45:19;3.50;;;2.40;;
11962;SDS011;62678;52.130;5.584;2023-08-06T09:47:48;2.80;;;2.60;;
11962;SDS011;62678;52.130;5.584;2023-08-06T09:50:16;3.10;;;2.78;;
11962;SDS011;62678;52.130;5.584;2023-08-06T09:52:45;4.75;;;2.35;;
11962;SDS011;62678;52.130;5.584;2023-08-06T09:55:13;4.55;;;2.92;;
11962;SDS011;62678;52.130;5.584;2023-08-06T09:57:41;5.90;;;3.10;;
11962;SDS011;62678;52.130;5.584;2023-08-06T10:00:09;4.63;;;3.97;;
11962;SDS011;62678;52.130;5.584;2023-08-06T10:02:38;5.65;;;4.38;;
11962;SDS011;62678;52.130;5.584;2023-08-06T10:05:07;6.78;;;5.70;;
11962;SDS011;62678;52.130;5.584;2023-08-06T10:07:35;7.82;;;6.20;;
11962;SDS011;62678;52.130;5.584;2023-08-06T10:10:06;9.77;;;7.55;;
11962;SDS011;62678;52.130;5.584;2023-08-06T10:12:34;9.32;;;7.20;;
11962;SDS011;62678;52.130;5.584;2023-08-06T10:15:05;10.18;;;8.15;;
11962;SDS011;62678;52.130;5.584;2023-08-06T10:17:35;10.43;;;8.45;;
11962;SDS011;62678;52.130;5.584;2023-08-06T10:20:05;8.65;;;7.25;;
11962;SDS011;62678;52.130;5.584;2023-08-06T10:22:33;8.20;;;6.70;;
11962;SDS011;62678;52.130;5.584;2023-08-06T10:25:03;9.13;;;7.20;;
11962;SDS011;62678;52.130;5.584;2023-08-06T10:27:32;8.80;;;7.82;;
11962;SDS011;62678;52.130;5.584;2023-08-06T10:32:54;8.18;;;6.90;;
11962;SDS011;62678;52.130;5.584;2023-08-06T10:35:35;7.53;;;6.28;;
11962;SDS011;62678;52.130;5.584;2023-08-06T10:38:03;7.63;;;6.55;;
11962;SDS011;62678;52.130;5.584;2023-08-06T10:40:32;7.75;;;6.90;;
11962;SDS011;62678;52.130;5.584;2023-08-06T10:43:01;8.65;;;7.07;;
11962;SDS011;62678;52.130;5.584;2023-08-06T10:45:28;9.98;;;7.72;;
11962;SDS011;62678;52.130;5.584;2023-08-06T10:47:56;11.02;;;7.80;;
11962;SDS011;62678;52.130;5.584;2023-08-06T10:50:23;9.60;;;7.63;;
11962;SDS011;62678;52.130;5.584;2023-08-06T10:52:51;9.23;;;7.43;;
11962;SDS011;62678;52.130;5.584;2023-08-06T10:55:22;9.68;;;7.68;;
11962;SDS011;62678;52.130;5.584;2023-08-06T10:57:50;9.80;;;7.50;;
11962;SDS011;62678;52.130;5.584;2023-08-06T11:00:18;10.38;;;7.88;;
11962;SDS011;62678;52.130;5.584;2023-08-06T11:02:48;10.35;;;7.97;;
11962;SDS011;62678;52.130;5.584;2023-08-06T11:05:15;10.88;;;8.55;;
11962;SDS011;62678;52.130;5.584;2023-08-06T11:07:43;9.65;;;8.65;;
11962;SDS011;62678;52.130;5.584;2023-08-06T11:10:11;10.27;;;7.90;;
11962;SDS011;62678;52.130;5.584;2023-08-06T11:12:39;12.68;;;8.55;;
11962;SDS011;62678;52.130;5.584;2023-08-06T11:15:07;10.38;;;8.18;;
11962;SDS011;62678;52.130;5.584;2023-08-06T11:17:37;10.57;;;7.55;;
11962;SDS011;62678;52.130;5.584;2023-08-06T11:20:07;13.40;;;7.90;;
11962;SDS011;62678;52.130;5.584;2023-08-06T11:22:35;10.73;;;7.55;;
11962;SDS011;62678;52.130;5.584;2023-08-06T11:25:04;16.48;;;8.23;;
11962;SDS011;62678;52.130;5.584;2023-08-06T11:27:32;9.38;;;7.22;;
11962;SDS011;62678;52.130;5.584;2023-08-06T11:29:59;10.93;;;7.63;;
11962;SDS011;62678;52.130;5.584;2023-08-06T11:32:27;10.80;;;8.15;;
11962;SDS011;62678;52.130;5.584;2023-08-06T11:34:55;16.58;;;9.32;;
11962;SDS011;62678;52.130;5.584;2023-08-06T11:37:22;11.82;;;8.68;;
11962;SDS011;62678;52.130;5.584;2023-08-06T11:39:51;14.38;;;9.15;;
11962;SDS011;62678;52.130;5.584;2023-08-06T11:42:18;14.43;;;10.10;;
11962;SDS011;62678;52.130;5.584;2023-08-06T11:44:45;14.27;;;10.82;;
11962;SDS011;62678;52.130;5.584;2023-08-06T11:47:14;15.63;;;10.18;;
11962;SDS011;62678;52.130;5.584;2023-08-06T11:49:43;14.70;;;10.88;;
11962;SDS011;62678;52.130;5.584;2023-08-06T11:52:17;18.48;;;11.68;;
11962;SDS011;62678;52.130;5.584;2023-08-06T11:54:59;20.60;;;11.30;;
11962;SDS011;62678;52.130;5.584;2023-08-06T11:57:29;16.80;;;10.18;;
11962;SDS011;62678;52.130;5.584;2023-08-06T11:59:58;14.80;;;10.20;;
11962;SDS011;62678;52.130;5.584;2023-08-06T12:02:31;16.05;;;9.52;;
11962;SDS011;62678;52.130;5.584;2023-08-06T12:05:03;17.45;;;9.45;;
11962;SDS011;62678;52.130;5.584;2023-08-06T12:07:37;16.77;;;9.68;;
11962;SDS011;62678;52.130;5.584;2023-08-06T12:10:08;14.63;;;8.80;;
11962;SDS011;62678;52.130;5.584;2023-08-06T12:12:36;15.23;;;8.55;;
11962;SDS011;62678;52.130;5.584;2023-08-06T12:15:04;13.00;;;8.48;;
11962;SDS011;62678;52.130;5.584;2023-08-06T12:17:32;11.90;;;7.15;;
11962;SDS011;62678;52.130;5.584;2023-08-06T12:20:00;10.13;;;7.43;;
11962;SDS011;62678;52.130;5.584;2023-08-06T12:22:27;12.07;;;7.78;;
11962;SDS011;62678;52.130;5.584;2023-08-06T12:24:58;12.23;;;7.47;;
11962;SDS011;62678;52.130;5.584;2023-08-06T12:27:26;18.52;;;7.50;;
11962;SDS011;62678;52.130;5.584;2023-08-06T12:29:53;11.98;;;7.35;;
11962;SDS011;62678;52.130;5.584;2023-08-06T12:32:20;12.05;;;6.88;;
11962;SDS011;62678;52.130;5.584;2023-08-06T12:34:47;12.30;;;7.93;;
11962;SDS011;62678;52.130;5.584;2023-08-06T12:37:14;14.40;;;7.72;;
11962;SDS011;62678;52.130;5.584;2023-08-06T12:39:41;11.07;;;7.28;;
11962;SDS011;62678;52.130;5.584;2023-08-06T12:42:10;9.35;;;6.82;;
11962;SDS011;62678;52.130;5.584;2023-08-06T12:44:37;8.85;;;6.95;;
11962;SDS011;62678;52.130;5.584;2023-08-06T12:47:04;9.38;;;6.50;;
11962;SDS011;62678;52.130;5.584;2023-08-06T12:49:32;9.95;;;6.57;;
11962;SDS011;62678;52.130;5.584;2023-08-06T12:52:00;10.23;;;5.68;;
11962;SDS011;62678;52.130;5.584;2023-08-06T12:54:30;10.45;;;6.30;;
11962;SDS011;62678;52.130;5.584;2023-08-06T12:57:01;11.30;;;6.85;;
11962;SDS011;62678;52.130;5.584;2023-08-06T12:59:31;8.98;;;6.72;;
11962;SDS011;62678;52.130;5.584;2023-08-06T13:01:59;10.18;;;7.00;;
11962;SDS011;62678;52.130;5.584;2023-08-06T13:04:26;12.82;;;6.97;;
11962;SDS011;62678;52.130;5.584;2023-08-06T13:06:53;12.98;;;7.50;;
11962;SDS011;62678;52.130;5.584;2023-08-06T13:09:20;11.85;;;7.45;;
11962;SDS011;62678;52.130;5.584;2023-08-06T13:11:47;11.10;;;7.72;;
11962;SDS011;62678;52.130;5.584;2023-08-06T13:14:15;13.90;;;7.70;;
11962;SDS011;62678;52.130;5.584;2023-08-06T13:16:44;10.63;;;7.28;;
11962;SDS011;62678;52.130;5.584;2023-08-06T13:19:12;10.38;;;6.28;;
11962;SDS011;62678;52.130;5.584;2023-08-06T13:21:58;9.02;;;5.93;;
11962;SDS011;62678;52.130;5.584;2023-08-06T13:24:27;7.68;;;5.75;;
11962;SDS011;62678;52.130;5.584;2023-08-06T13:26:55;8.07;;;5.35;;
11962;SDS011;62678;52.130;5.584;2023-08-06T13:29:22;6.90;;;4.85;;
11962;SDS011;62678;52.130;5.584;2023-08-06T13:31:50;8.05;;;5.57;;
11962;SDS011;62678;52.130;5.584;2023-08-06T13:34:18;10.23;;;6.65;;
11962;SDS011;62678;52.130;5.584;2023-08-06T13:36:45;12.45;;;7.03;;
11962;SDS011;62678;52.130;5.584;2023-08-06T13:39:12;11.13;;;7.43;;
11962;SDS011;62678;52.130;5.584;2023-08-06T13:41:41;13.50;;;8.27;;
11962;SDS011;62678;52.130;5.584;2023-08-06T13:44:08;16.40;;;10.18;;
11962;SDS011;62678;52.130;5.584;2023-08-06T13:46:36;21.42;;;11.60;;
11962;SDS011;62678;52.130;5.584;2023-08-06T13:49:04;20.73;;;11.63;;
11962;SDS011;62678;52.130;5.584;2023-08-06T13:51:32;14.48;;;10.27;;
11962;SDS011;62678;52.130;5.584;2023-08-06T13:54:00;17.83;;;11.45;;
11962;SDS011;62678;52.130;5.584;2023-08-06T13:56:27;17.90;;;9.75;;
11962;SDS011;62678;52.130;5.584;2023-08-06T13:58:55;16.02;;;11.05;;
11962;SDS011;62678;52.130;5.584;2023-08-06T14:01:23;17.48;;;10.25;;
11962;SDS011;62678;52.130;5.584;2023-08-06T14:03:50;20.92;;;11.48;;
11962;SDS011;62678;52.130;5.584;2023-08-06T14:06:20;20.77;;;11.52;;
11962;SDS011;62678;52.130;5.584;2023-08-06T14:08:47;12.05;;;9.43;;
11962;SDS011;62678;52.130;5.584;2023-08-06T14:11:14;17.00;;;9.18;;
11962;SDS011;62678;52.130;5.584;2023-08-06T14:13:41;10.88;;;8.13;;
11962;SDS011;62678;52.130;5.584;2023-08-06T14:16:09;14.60;;;9.02;;
11962;SDS011;62678;52.130;5.584;2023-08-06T14:18:36;15.13;;;8.70;;
11962;SDS011;62678;52.130;5.584;2023-08-06T14:21:04;14.63;;;8.43;;
11962;SDS011;62678;52.130;5.584;2023-08-06T14:23:33;11.52;;;8.43;;
11962;SDS011;62678;52.130;5.584;2023-08-06T14:26:00;12.98;;;10.07;;
11962;SDS011;62678;52.130;5.584;2023-08-06T14:28:27;17.10;;;10.32;;
11962;SDS011;62678;52.130;5.584;2023-08-06T14:30:54;10.52;;;8.55;;
11962;SDS011;62678;52.130;5.584;2023-08-06T14:33:22;16.90;;;10.13;;
11962;SDS011;62678;52.130;5.584;2023-08-06T14:35:50;14.10;;;10.90;;